Annapolitan II — WYZ8643 — position and weather

sailwx.info

Track history (hours):
 
Tides and Currents Weather Stations Pressure Air Temp Water Temp Dewpoint Dewpoint Depression Visibility Wind Speed Wind Dir Waves Ship Positions

Annapolitan II

Owner: CHESAPEAKE MARINE TOURS INC, ANNAPOLIS, MD. More information available from US FCC via Universal Licensing System and Coast Guard Vessel Documentation Center.

Last reported at 2018-Apr-21 15:30 UTC. Time now 2018-Apr-21 15:30 UTC.
Position N 39°17' W 076°37'.

Type: Passenger vessel. MMSI: 367335820.

Date/timePositionNaut miles runAvg speedWind from/ knotsBaromVisibWave heightAir tempDewpointWater temp
2018-Apr-21 15:30N 39°17' W 076°37'0 0.0
2018-Apr-21 15:00N 39°17' W 076°37'0 0.0
2018-Apr-21 01:38N 39°17' W 076°37'0 0.0
2018-Apr-21 01:30N 39°17' W 076°37'2 3.0
2018-Apr-21 01:00N 39°16' W 076°35'2 3.0
2018-Apr-21 00:30N 39°17' W 076°37'0 0.0
2018-Apr-21 00:00N 39°17' W 076°37'2 3.7
2018-Apr-20 23:30N 39°16' W 076°35'2 3.7
2018-Apr-20 23:00N 39°17' W 076°37'0 0.0
2018-Apr-20 22:30N 39°17' W 076°37'0 0.0
2018-Apr-20 22:00N 39°17' W 076°37'0 0.0
2018-Apr-20 21:30N 39°17' W 076°37'0 0.0
2018-Apr-20 21:00N 39°17' W 076°37'1 3.0
2018-Apr-20 20:30N 39°16' W 076°35'1 3.0
2018-Apr-20 20:00N 39°17' W 076°37'2 3.1
2018-Apr-20 19:30N 39°16' W 076°35'2 3.0
2018-Apr-20 19:00N 39°17' W 076°37'1 2.6
2018-Apr-20 18:30N 39°17' W 076°35'1 2.5
2018-Apr-20 18:00N 39°17' W 076°37'1 2.6
2018-Apr-20 17:30N 39°17' W 076°35'1 2.6
2018-Apr-20 17:00N 39°17' W 076°37'0 0.0
2018-Apr-20 16:30N 39°17' W 076°37'0 0.0
2018-Apr-20 16:00N 39°17' W 076°37'0 0.0
2018-Apr-19 19:08N 39°17' W 076°37'0 0.0
2018-Apr-19 19:00N 39°17' W 076°37'1 2.8
2018-Apr-19 18:30N 39°17' W 076°35'1 2.8
2018-Apr-19 18:00N 39°17' W 076°37'0 0.0
2018-Apr-19 17:30N 39°17' W 076°37'0 0.0
2018-Apr-19 17:00N 39°17' W 076°37'0 0.0
2018-Apr-19 16:30N 39°17' W 076°37'0 0.0
2018-Apr-19 16:00N 39°17' W 076°37'0 0.0
2018-Apr-19 15:30N 39°17' W 076°37'0 0.0
2018-Apr-18 20:12N 39°17' W 076°37'0 0.0
2018-Apr-18 20:01N 39°17' W 076°37'2 3.4
2018-Apr-18 19:31N 39°16' W 076°35'2 3.4
2018-Apr-18 19:01N 39°17' W 076°37'1 2.9
2018-Apr-18 18:31N 39°17' W 076°35'1 2.9
2018-Apr-18 18:01N 39°17' W 076°37'1 2.9
2018-Apr-18 17:30N 39°16' W 076°35'1 2.9
2018-Apr-18 17:01N 39°17' W 076°37'1 2.4
2018-Apr-18 16:30N 39°17' W 076°35'1 2.3
2018-Apr-18 16:01N 39°17' W 076°37'0 0.2
2018-Apr-18 15:30N 39°17' W 076°37'0 0.0
2018-Apr-17 19:56N 39°17' W 076°37'1 3.5
2018-Apr-17 19:31N 39°16' W 076°35'1 3.0
2018-Apr-17 19:00N 39°17' W 076°37'1 2.5
2018-Apr-17 18:30N 39°17' W 076°35'1 2.5
2018-Apr-17 18:00N 39°17' W 076°37'0 0.0
2018-Apr-17 17:30N 39°17' W 076°37'0 0.0
2018-Apr-17 17:00N 39°17' W 076°37'2 3.5
2018-Apr-17 16:31N 39°16' W 076°35'2 3.5
2018-Apr-17 16:01N 39°17' W 076°37'2 3.1
2018-Apr-17 15:30N 39°16' W 076°35'2 3.1
2018-Apr-17 15:01N 39°17' W 076°37'1 1.0
2018-Apr-17 14:31N 39°17' W 076°36'1 1.0
2018-Apr-17 14:01N 39°17' W 076°37'0 0.0
2018-Apr-17 13:30N 39°17' W 076°37'0 0.0
2018-Apr-16 19:48N 39°17' W 076°37'1 3.9
2018-Apr-16 19:30N 39°17' W 076°35'1 2.3
2018-Apr-16 19:00N 39°17' W 076°37'1 2.5
2018-Apr-16 18:30N 39°17' W 076°35'1 2.5
2018-Apr-16 18:00N 39°17' W 076°37'1 2.6
2018-Apr-16 17:30N 39°17' W 076°35'1 2.6
2018-Apr-16 17:00N 39°17' W 076°37'0 0.0
2018-Apr-16 16:30N 39°17' W 076°37'0 0.0
2018-Apr-15 18:23N 39°17' W 076°37'0 0.0
2018-Apr-15 18:00N 39°17' W 076°37'2 4.1
2018-Apr-15 17:31N 39°16' W 076°35'2 3.7
2018-Apr-15 16:58N 39°17' W 076°37'0 0.0
2018-Apr-15 16:31N 39°17' W 076°37'0 0.0
2018-Apr-15 15:58N 39°17' W 076°37'0 0.0
2018-Apr-15 15:31N 39°17' W 076°37'0 0.0
2018-Apr-15 01:43N 39°17' W 076°37'0 0.6
2018-Apr-15 01:29N 39°17' W 076°37'2 4.0
2018-Apr-15 01:00N 39°16' W 076°35'2 3.9
2018-Apr-15 00:30N 39°17' W 076°37'0 0.0
2018-Apr-15 00:00N 39°17' W 076°37'2 4.5
2018-Apr-14 23:30N 39°16' W 076°34'2 4.5
2018-Apr-14 23:00N 39°17' W 076°37'1 2.6
2018-Apr-14 22:30N 39°17' W 076°35'1 2.5
2018-Apr-14 21:59N 39°17' W 076°37'1 2.6
2018-Apr-14 21:30N 39°17' W 076°35'1 2.4
2018-Apr-14 21:00N 39°17' W 076°37'1 2.2
2018-Apr-14 20:30N 39°17' W 076°35'1 2.2
2018-Apr-14 20:00N 39°17' W 076°37'2 3.1
2018-Apr-14 19:30N 39°16' W 076°35'2 2.3
2018-Apr-14 18:52N 39°17' W 076°37'1 3.4
2018-Apr-14 18:30N 39°17' W 076°35'1 2.0
2018-Apr-14 17:55N 39°17' W 076°37'1 3.3
2018-Apr-14 17:30N 39°17' W 076°35'1 2.6
2018-Apr-14 17:00N 39°17' W 076°37'2 3.5
2018-Apr-14 16:30N 39°16' W 076°35'2 3.4
2018-Apr-14 16:00N 39°17' W 076°37'2 3.1
2018-Apr-14 15:30N 39°16' W 076°35'2 3.0
2018-Apr-14 15:00N 39°17' W 076°37'0 0.0
2018-Apr-14 14:29N 39°17' W 076°37'0 0.0
2018-Apr-12 20:22N 39°17' W 076°37'1 2.0
2018-Apr-12 20:00N 39°17' W 076°36'1 1.2
2018-Apr-12 19:30N 39°17' W 076°35'1 2.3
2018-Apr-12 19:00N 39°17' W 076°37'1 2.4
2018-Apr-12 18:30N 39°17' W 076°35'1 2.3
2018-Apr-12 18:00N 39°17' W 076°37'1 2.3
2018-Apr-12 17:30N 39°17' W 076°35'1 2.2
2018-Apr-12 16:58N 39°17' W 076°37'0 0.0
2018-Apr-12 16:30N 39°17' W 076°37'0 0.0
2018-Apr-12 15:58N 39°17' W 076°37'0 0.0
2018-Apr-11 19:54N 39°17' W 076°37'2 3.9
2018-Apr-11 19:31N 39°16' W 076°35'2 2.4
2018-Apr-11 18:52N 39°17' W 076°37'1 3.9
2018-Apr-11 18:30N 39°16' W 076°35'1 2.7
2018-Apr-11 17:58N 39°17' W 076°37'1 3.1
2018-Apr-11 17:31N 39°16' W 076°35'1 2.8
2018-Apr-11 17:01N 39°17' W 076°37'1 2.2
2018-Apr-11 16:30N 39°17' W 076°35'1 2.2
2018-Apr-11 16:00N 39°17' W 076°37'  
Track history (hours):
 
Tides and Currents Weather Stations Pressure Air Temp Water Temp Dewpoint Dewpoint Depression Visibility Wind Speed Wind Dir Waves Ship Positions

Annapolitan II

Owner: CHESAPEAKE MARINE TOURS INC, ANNAPOLIS, MD. More information available from US FCC via Universal Licensing System and Coast Guard Vessel Documentation Center.

Last reported at 2018-Apr-21 15:30 UTC. Time now 2018-Apr-21 15:30 UTC.
Position N 39°17' W 076°37'.

Type: Passenger vessel. MMSI: 367335820.

Date/timePositionNaut miles runAvg speedWind from/ knotsBaromVisibWave heightAir tempDewpointWater temp
2018-Apr-21 15:30N 39°17' W 076°37'0 0.0
2018-Apr-21 15:00N 39°17' W 076°37'0 0.0
2018-Apr-21 01:38N 39°17' W 076°37'0 0.0
2018-Apr-21 01:30N 39°17' W 076°37'2 3.0
2018-Apr-21 01:00N 39°16' W 076°35'2 3.0
2018-Apr-21 00:30N 39°17' W 076°37'0 0.0
2018-Apr-21 00:00N 39°17' W 076°37'2 3.7
2018-Apr-20 23:30N 39°16' W 076°35'2 3.7
2018-Apr-20 23:00N 39°17' W 076°37'0 0.0
2018-Apr-20 22:30N 39°17' W 076°37'0 0.0
2018-Apr-20 22:00N 39°17' W 076°37'0 0.0
2018-Apr-20 21:30N 39°17' W 076°37'0 0.0
2018-Apr-20 21:00N 39°17' W 076°37'1 3.0
2018-Apr-20 20:30N 39°16' W 076°35'1 3.0
2018-Apr-20 20:00N 39°17' W 076°37'2 3.1
2018-Apr-20 19:30N 39°16' W 076°35'2 3.0
2018-Apr-20 19:00N 39°17' W 076°37'1 2.6
2018-Apr-20 18:30N 39°17' W 076°35'1 2.5
2018-Apr-20 18:00N 39°17' W 076°37'1 2.6
2018-Apr-20 17:30N 39°17' W 076°35'1 2.6
2018-Apr-20 17:00N 39°17' W 076°37'0 0.0
2018-Apr-20 16:30N 39°17' W 076°37'0 0.0
2018-Apr-20 16:00N 39°17' W 076°37'0 0.0
2018-Apr-19 19:08N 39°17' W 076°37'0 0.0
2018-Apr-19 19:00N 39°17' W 076°37'1 2.8
2018-Apr-19 18:30N 39°17' W 076°35'1 2.8
2018-Apr-19 18:00N 39°17' W 076°37'0 0.0
2018-Apr-19 17:30N 39°17' W 076°37'0 0.0
2018-Apr-19 17:00N 39°17' W 076°37'0 0.0
2018-Apr-19 16:30N 39°17' W 076°37'0 0.0
2018-Apr-19 16:00N 39°17' W 076°37'0 0.0
2018-Apr-19 15:30N 39°17' W 076°37'0 0.0
2018-Apr-18 20:12N 39°17' W 076°37'0 0.0
2018-Apr-18 20:01N 39°17' W 076°37'2 3.4
2018-Apr-18 19:31N 39°16' W 076°35'2 3.4
2018-Apr-18 19:01N 39°17' W 076°37'1 2.9
2018-Apr-18 18:31N 39°17' W 076°35'1 2.9
2018-Apr-18 18:01N 39°17' W 076°37'1 2.9
2018-Apr-18 17:30N 39°16' W 076°35'1 2.9
2018-Apr-18 17:01N 39°17' W 076°37'1 2.4
2018-Apr-18 16:30N 39°17' W 076°35'1 2.3
2018-Apr-18 16:01N 39°17' W 076°37'0 0.2
2018-Apr-18 15:30N 39°17' W 076°37'0 0.0
2018-Apr-17 19:56N 39°17' W 076°37'1 3.5
2018-Apr-17 19:31N 39°16' W 076°35'1 3.0
2018-Apr-17 19:00N 39°17' W 076°37'1 2.5
2018-Apr-17 18:30N 39°17' W 076°35'1 2.5
2018-Apr-17 18:00N 39°17' W 076°37'0 0.0
2018-Apr-17 17:30N 39°17' W 076°37'0 0.0
2018-Apr-17 17:00N 39°17' W 076°37'2 3.5
2018-Apr-17 16:31N 39°16' W 076°35'2 3.5
2018-Apr-17 16:01N 39°17' W 076°37'2 3.1
2018-Apr-17 15:30N 39°16' W 076°35'2 3.1
2018-Apr-17 15:01N 39°17' W 076°37'1 1.0
2018-Apr-17 14:31N 39°17' W 076°36'1 1.0
2018-Apr-17 14:01N 39°17' W 076°37'0 0.0
2018-Apr-17 13:30N 39°17' W 076°37'0 0.0
2018-Apr-16 19:48N 39°17' W 076°37'1 3.9
2018-Apr-16 19:30N 39°17' W 076°35'1 2.3
2018-Apr-16 19:00N 39°17' W 076°37'1 2.5
2018-Apr-16 18:30N 39°17' W 076°35'1 2.5
2018-Apr-16 18:00N 39°17' W 076°37'1 2.6
2018-Apr-16 17:30N 39°17' W 076°35'1 2.6
2018-Apr-16 17:00N 39°17' W 076°37'0 0.0
2018-Apr-16 16:30N 39°17' W 076°37'0 0.0
2018-Apr-15 18:23N 39°17' W 076°37'0 0.0
2018-Apr-15 18:00N 39°17' W 076°37'2 4.1
2018-Apr-15 17:31N 39°16' W 076°35'2 3.7
2018-Apr-15 16:58N 39°17' W 076°37'0 0.0
2018-Apr-15 16:31N 39°17' W 076°37'0 0.0
2018-Apr-15 15:58N 39°17' W 076°37'0 0.0
2018-Apr-15 15:31N 39°17' W 076°37'0 0.0
2018-Apr-15 01:43N 39°17' W 076°37'0 0.6
2018-Apr-15 01:29N 39°17' W 076°37'2 4.0
2018-Apr-15 01:00N 39°16' W 076°35'2 3.9
2018-Apr-15 00:30N 39°17' W 076°37'0 0.0
2018-Apr-15 00:00N 39°17' W 076°37'2 4.5
2018-Apr-14 23:30N 39°16' W 076°34'2 4.5
2018-Apr-14 23:00N 39°17' W 076°37'1 2.6
2018-Apr-14 22:30N 39°17' W 076°35'1 2.5
2018-Apr-14 21:59N 39°17' W 076°37'1 2.6
2018-Apr-14 21:30N 39°17' W 076°35'1 2.4
2018-Apr-14 21:00N 39°17' W 076°37'1 2.2
2018-Apr-14 20:30N 39°17' W 076°35'1 2.2
2018-Apr-14 20:00N 39°17' W 076°37'2 3.1
2018-Apr-14 19:30N 39°16' W 076°35'2 2.3
2018-Apr-14 18:52N 39°17' W 076°37'1 3.4
2018-Apr-14 18:30N 39°17' W 076°35'1 2.0
2018-Apr-14 17:55N 39°17' W 076°37'1 3.3
2018-Apr-14 17:30N 39°17' W 076°35'1 2.6
2018-Apr-14 17:00N 39°17' W 076°37'2 3.5
2018-Apr-14 16:30N 39°16' W 076°35'2 3.4
2018-Apr-14 16:00N 39°17' W 076°37'2 3.1
2018-Apr-14 15:30N 39°16' W 076°35'2 3.0
2018-Apr-14 15:00N 39°17' W 076°37'0 0.0
2018-Apr-14 14:29N 39°17' W 076°37'0 0.0
2018-Apr-12 20:22N 39°17' W 076°37'1 2.0
2018-Apr-12 20:00N 39°17' W 076°36'1 1.2
2018-Apr-12 19:30N 39°17' W 076°35'1 2.3
2018-Apr-12 19:00N 39°17' W 076°37'1 2.4
2018-Apr-12 18:30N 39°17' W 076°35'1 2.3
2018-Apr-12 18:00N 39°17' W 076°37'1 2.3
2018-Apr-12 17:30N 39°17' W 076°35'1 2.2
2018-Apr-12 16:58N 39°17' W 076°37'0 0.0
2018-Apr-12 16:30N 39°17' W 076°37'0 0.0
2018-Apr-12 15:58N 39°17' W 076°37'0 0.0
2018-Apr-11 19:54N 39°17' W 076°37'2 3.9
2018-Apr-11 19:31N 39°16' W 076°35'2 2.4
2018-Apr-11 18:52N 39°17' W 076°37'1 3.9
2018-Apr-11 18:30N 39°16' W 076°35'1 2.7
2018-Apr-11 17:58N 39°17' W 076°37'1 3.1
2018-Apr-11 17:31N 39°16' W 076°35'1 2.8
2018-Apr-11 17:01N 39°17' W 076°37'1 2.2
2018-Apr-11 16:30N 39°17' W 076°35'1 2.2
2018-Apr-11 16:00N 39°17' W 076°37'  

Dump ship's entire track history